sensor_id;sensor_type;location;lat;lon;timestamp;pressure;altitude;pressure_sealevel;temperature;humidity
36600;BME280;35385;55.668;37.508;2023-03-03T00:00:15;97926.19;;;-0.84;100.00
36600;BME280;35385;55.668;37.508;2023-03-03T00:01:16;97932.47;;;-0.86;100.00
36600;BME280;35385;55.668;37.508;2023-03-03T00:02:16;97927.44;;;-0.89;100.00
36600;BME280;35385;55.668;37.508;2023-03-03T00:03:20;97931.00;;;-0.90;100.00
36600;BME280;35385;55.668;37.508;2023-03-03T00:04:21;97925.16;;;-0.81;100.00
36600;BME280;35385;55.668;37.508;2023-03-03T00:05:21;97928.72;;;-0.82;100.00
36600;BME280;35385;55.668;37.508;2023-03-03T00:06:22;97918.03;;;-0.79;100.00
36600;BME280;35385;55.668;37.508;2023-03-03T00:07:26;97909.78;;;-0.73;100.00
36600;BME280;35385;55.668;37.508;2023-03-03T00:08:27;97909.06;;;-0.75;100.00
36600;BME280;35385;55.668;37.508;2023-03-03T00:09:27;97910.50;;;-0.71;100.00
36600;BME280;35385;55.668;37.508;2023-03-03T00:10:27;97913.78;;;-0.67;100.00
36600;BME280;35385;55.668;37.508;2023-03-03T00:11:28;97909.38;;;-0.67;100.00
36600;BME280;35385;55.668;37.508;2023-03-03T00:12:29;97906.22;;;-0.72;100.00
36600;BME280;35385;55.668;37.508;2023-03-03T00:13:30;97912.41;;;-0.73;100.00
36600;BME280;35385;55.668;37.508;2023-03-03T00:14:31;97902.13;;;-0.76;100.00
36600;BME280;35385;55.668;37.508;2023-03-03T00:15:32;97901.81;;;-0.72;100.00
36600;BME280;35385;55.668;37.508;2023-03-03T00:16:41;97913.53;;;-0.77;100.00
36600;BME280;35385;55.668;37.508;2023-03-03T00:17:41;97910.94;;;-0.77;100.00
36600;BME280;35385;55.668;37.508;2023-03-03T00:18:44;97910.84;;;-0.76;100.00
36600;BME280;35385;55.668;37.508;2023-03-03T00:19:44;97909.91;;;-0.75;100.00
36600;BME280;35385;55.668;37.508;2023-03-03T00:20:53;97914.25;;;-0.61;100.00
36600;BME280;35385;55.668;37.508;2023-03-03T00:21:55;97910.59;;;-0.58;100.00
36600;BME280;35385;55.668;37.508;2023-03-03T00:23:08;97906.47;;;-0.62;100.00
36600;BME280;35385;55.668;37.508;2023-03-03T00:24:35;97915.84;;;-0.58;100.00
36600;BME280;35385;55.668;37.508;2023-03-03T00:25:36;97903.34;;;-0.55;100.00
36600;BME280;35385;55.668;37.508;2023-03-03T00:26:37;97906.91;;;-0.56;100.00
36600;BME280;35385;55.668;37.508;2023-03-03T00:27:37;97907.63;;;-0.54;100.00
36600;BME280;35385;55.668;37.508;2023-03-03T00:28:45;97896.97;;;-0.51;100.00
36600;BME280;35385;55.668;37.508;2023-03-03T00:29:51;97902.53;;;-0.43;100.00
36600;BME280;35385;55.668;37.508;2023-03-03T00:30:53;97899.56;;;-0.51;100.00
36600;BME280;35385;55.668;37.508;2023-03-03T00:31:54;97899.56;;;-0.51;100.00
36600;BME280;35385;55.668;37.508;2023-03-03T00:32:57;97893.41;;;-0.50;100.00
36600;BME280;35385;55.668;37.508;2023-03-03T00:33:57;97886.47;;;-0.51;100.00
36600;BME280;35385;55.668;37.508;2023-03-03T00:35:47;97895.69;;;-0.58;100.00
36600;BME280;35385;55.668;37.508;2023-03-03T00:36:36;97888.34;;;-0.53;100.00
36600;BME280;35385;55.668;37.508;2023-03-03T00:37:37;97884.22;;;-0.57;100.00
36600;BME280;35385;55.668;37.508;2023-03-03T00:38:39;97892.09;;;-0.57;100.00
36600;BME280;35385;55.668;37.508;2023-03-03T00:39:40;97882.34;;;-0.55;100.00
36600;BME280;35385;55.668;37.508;2023-03-03T00:40:43;97890.13;;;-0.53;100.00
36600;BME280;35385;55.668;37.508;2023-03-03T00:41:44;97886.13;;;-0.59;100.00
36600;BME280;35385;55.668;37.508;2023-03-03T00:42:45;97889.81;;;-0.61;100.00
36600;BME280;35385;55.668;37.508;2023-03-03T00:43:47;97879.72;;;-0.55;100.00
36600;BME280;35385;55.668;37.508;2023-03-03T00:44:57;97878.06;;;-0.56;100.00
36600;BME280;35385;55.668;37.508;2023-03-03T00:45:58;97875.97;;;-0.51;100.00
36600;BME280;35385;55.668;37.508;2023-03-03T00:47:02;97882.81;;;-0.48;100.00
36600;BME280;35385;55.668;37.508;2023-03-03T00:49:24;97870.19;;;-0.56;100.00
36600;BME280;35385;55.668;37.508;2023-03-03T00:50:30;97858.75;;;-0.55;100.00
36600;BME280;35385;55.668;37.508;2023-03-03T00:51:31;97866.72;;;-0.56;100.00
36600;BME280;35385;55.668;37.508;2023-03-03T00:52:34;97861.38;;;-0.55;100.00
36600;BME280;35385;55.668;37.508;2023-03-03T00:53:35;97869.66;;;-0.61;100.00
36600;BME280;35385;55.668;37.508;2023-03-03T00:54:35;97866.28;;;-0.63;100.00
36600;BME280;35385;55.668;37.508;2023-03-03T00:55:35;97867.78;;;-0.59;100.00
36600;BME280;35385;55.668;37.508;2023-03-03T00:56:36;97862.56;;;-0.46;100.00
36600;BME280;35385;55.668;37.508;2023-03-03T00:57:38;97862.25;;;-0.42;100.00
36600;BME280;35385;55.668;37.508;2023-03-03T00:58:38;97859.19;;;-0.48;100.00
36600;BME280;35385;55.668;37.508;2023-03-03T00:59:38;97859.41;;;-0.51;100.00
36600;BME280;35385;55.668;37.508;2023-03-03T01:00:39;97848.69;;;-0.61;100.00
36600;BME280;35385;55.668;37.508;2023-03-03T01:01:40;97855.63;;;-0.60;100.00
36600;BME280;35385;55.668;37.508;2023-03-03T01:02:41;97850.56;;;-0.63;100.00
36600;BME280;35385;55.668;37.508;2023-03-03T01:03:45;97860.41;;;-0.66;100.00
36600;BME280;35385;55.668;37.508;2023-03-03T01:04:47;97855.50;;;-0.58;100.00
36600;BME280;35385;55.668;37.508;2023-03-03T01:05:49;97856.03;;;-0.53;100.00
36600;BME280;35385;55.668;37.508;2023-03-03T01:06:49;97851.75;;;-0.42;100.00
36600;BME280;35385;55.668;37.508;2023-03-03T01:07:50;97856.47;;;-0.47;100.00
36600;BME280;35385;55.668;37.508;2023-03-03T01:08:50;97850.03;;;-0.55;100.00
36600;BME280;35385;55.668;37.508;2023-03-03T01:09:51;97857.41;;;-0.48;100.00
36600;BME280;35385;55.668;37.508;2023-03-03T01:10:52;97849.00;;;-0.53;100.00
36600;BME280;35385;55.668;37.508;2023-03-03T01:11:53;97853.31;;;-0.52;100.00
36600;BME280;35385;55.668;37.508;2023-03-03T01:12:54;97850.59;;;-0.50;100.00
36600;BME280;35385;55.668;37.508;2023-03-03T01:13:54;97849.09;;;-0.54;100.00
36600;BME280;35385;55.668;37.508;2023-03-03T01:14:55;97843.00;;;-0.55;100.00
36600;BME280;35385;55.668;37.508;2023-03-03T01:15:56;97853.72;;;-0.58;100.00
36600;BME280;35385;55.668;37.508;2023-03-03T01:16:57;97848.34;;;-0.56;100.00
36600;BME280;35385;55.668;37.508;2023-03-03T01:17:57;97842.41;;;-0.58;100.00
36600;BME280;35385;55.668;37.508;2023-03-03T01:18:58;97845.63;;;-0.67;100.00
36600;BME280;35385;55.668;37.508;2023-03-03T01:19:58;97849.91;;;-0.66;100.00
36600;BME280;35385;55.668;37.508;2023-03-03T01:20:59;97848.13;;;-0.66;100.00
36600;BME280;35385;55.668;37.508;2023-03-03T01:22:01;97834.63;;;-0.60;100.00
36600;BME280;35385;55.668;37.508;2023-03-03T01:23:01;97837.16;;;-0.58;100.00
36600;BME280;35385;55.668;37.508;2023-03-03T01:24:01;97841.09;;;-0.65;100.00
36600;BME280;35385;55.668;37.508;2023-03-03T01:25:02;97837.75;;;-0.67;100.00
36600;BME280;35385;55.668;37.508;2023-03-03T01:26:03;97835.88;;;-0.65;100.00
36600;BME280;35385;55.668;37.508;2023-03-03T01:27:04;97839.88;;;-0.60;100.00
36600;BME280;35385;55.668;37.508;2023-03-03T01:28:04;97837.16;;;-0.58;100.00
36600;BME280;35385;55.668;37.508;2023-03-03T01:29:05;97833.28;;;-0.53;100.00
36600;BME280;35385;55.668;37.508;2023-03-03T01:30:06;97832.22;;;-0.50;100.00
36600;BME280;35385;55.668;37.508;2023-03-03T01:31:07;97835.03;;;-0.66;100.00
36600;BME280;35385;55.668;37.508;2023-03-03T01:32:07;97838.19;;;-0.61;100.00
36600;BME280;35385;55.668;37.508;2023-03-03T01:33:08;97837.03;;;-0.57;100.00
36600;BME280;35385;55.668;37.508;2023-03-03T01:34:08;97830.44;;;-0.62;100.00
36600;BME280;35385;55.668;37.508;2023-03-03T01:35:09;97835.75;;;-0.64;100.00
36600;BME280;35385;55.668;37.508;2023-03-03T01:36:09;97834.28;;;-0.68;100.00
36600;BME280;35385;55.668;37.508;2023-03-03T01:37:10;97841.94;;;-0.65;100.00
36600;BME280;35385;55.668;37.508;2023-03-03T01:38:10;97829.78;;;-0.66;100.00
36600;BME280;35385;55.668;37.508;2023-03-03T01:39:11;97836.38;;;-0.73;100.00
36600;BME280;35385;55.668;37.508;2023-03-03T01:40:16;97820.66;;;-0.73;100.00
36600;BME280;35385;55.668;37.508;2023-03-03T01:41:17;97835.13;;;-0.67;100.00
36600;BME280;35385;55.668;37.508;2023-03-03T01:42:18;97828.75;;;-0.63;100.00
36600;BME280;35385;55.668;37.508;2023-03-03T01:43:18;97828.09;;;-0.67;100.00
36600;BME280;35385;55.668;37.508;2023-03-03T01:44:19;97830.72;;;-0.67;100.00
36600;BME280;35385;55.668;37.508;2023-03-03T01:45:21;97837.75;;;-0.67;100.00
36600;BME280;35385;55.668;37.508;2023-03-03T01:46:33;97820.34;;;-0.68;100.00
36600;BME280;35385;55.668;37.508;2023-03-03T01:47:37;97833.16;;;-0.64;100.00
36600;BME280;35385;55.668;37.508;2023-03-03T01:48:39;97832.22;;;-0.63;100.00
36600;BME280;35385;55.668;37.508;2023-03-03T01:50:49;97831.00;;;-0.72;100.00
36600;BME280;35385;55.668;37.508;2023-03-03T01:51:54;97830.81;;;-0.68;100.00
36600;BME280;35385;55.668;37.508;2023-03-03T01:52:55;97828.75;;;-0.63;100.00
36600;BME280;35385;55.668;37.508;2023-03-03T01:53:58;97834.41;;;-0.57;100.00
36600;BME280;35385;55.668;37.508;2023-03-03T01:55:02;97827.28;;;-0.55;100.00
36600;BME280;35385;55.668;37.508;2023-03-03T01:56:03;97820.69;;;-0.48;100.00
36600;BME280;35385;55.668;37.508;2023-03-03T01:57:05;97827.81;;;-0.50;100.00
36600;BME280;35385;55.668;37.508;2023-03-03T01:58:19;97829.59;;;-0.50;100.00
36600;BME280;35385;55.668;37.508;2023-03-03T01:59:22;97826.97;;;-0.50;100.00
36600;BME280;35385;55.668;37.508;2023-03-03T02:00:25;97822.47;;;-0.48;100.00
36600;BME280;35385;55.668;37.508;2023-03-03T02:01:26;97823.84;;;-0.43;100.00
36600;BME280;35385;55.668;37.508;2023-03-03T02:02:28;97823.34;;;-0.35;100.00
36600;BME280;35385;55.668;37.508;2023-03-03T02:03:29;97830.66;;;-0.40;100.00
36600;BME280;35385;55.668;37.508;2023-03-03T02:04:30;97823.63;;;-0.40;100.00
36600;BME280;35385;55.668;37.508;2023-03-03T02:05:30;97823.63;;;-0.40;100.00
36600;BME280;35385;55.668;37.508;2023-03-03T02:06:32;97817.66;;;-0.42;100.00
36600;BME280;35385;55.668;37.508;2023-03-03T02:07:34;97823.72;;;-0.41;100.00
36600;BME280;35385;55.668;37.508;2023-03-03T02:08:47;97821.75;;;-0.38;100.00
36600;BME280;35385;55.668;37.508;2023-03-03T02:10:53;97819.97;;;-0.37;100.00
36600;BME280;35385;55.668;37.508;2023-03-03T02:11:55;97815.97;;;-0.43;100.00
36600;BME280;35385;55.668;37.508;2023-03-03T02:12:57;97815.88;;;-0.41;100.00
36600;BME280;35385;55.668;37.508;2023-03-03T02:13:58;97817.88;;;-0.45;100.00
36600;BME280;35385;55.668;37.508;2023-03-03T02:14:58;97813.25;;;-0.41;100.00
36600;BME280;35385;55.668;37.508;2023-03-03T02:15:59;97815.56;;;-0.37;100.00
36600;BME280;35385;55.668;37.508;2023-03-03T02:16:59;97803.38;;;-0.38;100.00
36600;BME280;35385;55.668;37.508;2023-03-03T02:18:13;97812.09;;;-0.37;100.00
36600;BME280;35385;55.668;37.508;2023-03-03T02:19:17;97799.81;;;-0.37;100.00
36600;BME280;35385;55.668;37.508;2023-03-03T02:20:27;97800.13;;;-0.28;100.00
36600;BME280;35385;55.668;37.508;2023-03-03T02:21:31;97800.75;;;-0.38;100.00
36600;BME280;35385;55.668;37.508;2023-03-03T02:22:33;97796.16;;;-0.34;100.00
36600;BME280;35385;55.668;37.508;2023-03-03T02:25:00;97803.09;;;-0.33;100.00
36600;BME280;35385;55.668;37.508;2023-03-03T02:27:05;97796.56;;;-0.40;100.00
36600;BME280;35385;55.668;37.508;2023-03-03T02:28:06;97794.78;;;-0.40;100.00
36600;BME280;35385;55.668;37.508;2023-03-03T02:29:07;97786.41;;;-0.45;100.00
36600;BME280;35385;55.668;37.508;2023-03-03T02:30:15;97793.72;;;-0.50;100.00
36600;BME280;35385;55.668;37.508;2023-03-03T02:31:18;97777.34;;;-0.53;100.00
36600;BME280;35385;55.668;37.508;2023-03-03T02:32:19;97786.59;;;-0.48;100.00
36600;BME280;35385;55.668;37.508;2023-03-03T02:33:20;97772.53;;;-0.47;100.00
36600;BME280;35385;55.668;37.508;2023-03-03T02:34:20;97772.09;;;-0.41;100.00
36600;BME280;35385;55.668;37.508;2023-03-03T02:35:28;97770.75;;;-0.33;100.00
36600;BME280;35385;55.668;37.508;2023-03-03T02:36:30;97768.66;;;-0.28;100.00
36600;BME280;35385;55.668;37.508;2023-03-03T02:37:31;97777.16;;;-0.38;100.00
36600;BME280;35385;55.668;37.508;2023-03-03T02:39:34;97780.31;;;-0.45;100.00
36600;BME280;35385;55.668;37.508;2023-03-03T02:40:35;97781.16;;;-0.45;100.00
36600;BME280;35385;55.668;37.508;2023-03-03T02:42:55;97771.28;;;-0.41;100.00
36600;BME280;35385;55.668;37.508;2023-03-03T02:45:00;97773.16;;;-0.43;100.00
36600;BME280;35385;55.668;37.508;2023-03-03T02:46:01;97774.44;;;-0.36;100.00
36600;BME280;35385;55.668;37.508;2023-03-03T02:47:01;97764.34;;;-0.42;100.00
36600;BME280;35385;55.668;37.508;2023-03-03T02:48:02;97769.94;;;-0.47;100.00
36600;BME280;35385;55.668;37.508;2023-03-03T02:49:03;97766.03;;;-0.41;100.00
36600;BME280;35385;55.668;37.508;2023-03-03T02:50:04;97764.78;;;-0.36;100.00
36600;BME280;35385;55.668;37.508;2023-03-03T02:51:05;97760.28;;;-0.33;100.00
36600;BME280;35385;55.668;37.508;2023-03-03T02:52:06;97761.41;;;-0.25;100.00
36600;BME280;35385;55.668;37.508;2023-03-03T02:53:08;97753.75;;;-0.28;100.00
36600;BME280;35385;55.668;37.508;2023-03-03T02:54:10;97753.03;;;-0.30;100.00
36600;BME280;35385;55.668;37.508;2023-03-03T02:55:11;97763.19;;;-0.25;100.00
36600;BME280;35385;55.668;37.508;2023-03-03T02:56:12;97755.31;;;-0.25;100.00
36600;BME280;35385;55.668;37.508;2023-03-03T02:57:12;97755.75;;;-0.31;100.00
36600;BME280;35385;55.668;37.508;2023-03-03T02:58:13;97762.69;;;-0.30;100.00
36600;BME280;35385;55.668;37.508;2023-03-03T02:59:13;97750.50;;;-0.31;100.00
36600;BME280;35385;55.668;37.508;2023-03-03T03:00:14;97757.13;;;-0.39;100.00
36600;BME280;35385;55.668;37.508;2023-03-03T03:01:14;97748.84;;;-0.32;100.00
36600;BME280;35385;55.668;37.508;2023-03-03T03:02:15;97748.63;;;-0.29;100.00
36600;BME280;35385;55.668;37.508;2023-03-03T03:03:15;97757.84;;;-0.24;100.00
36600;BME280;35385;55.668;37.508;2023-03-03T03:04:17;97749.88;;;-0.22;100.00
36600;BME280;35385;55.668;37.508;2023-03-03T03:05:18;97756.81;;;-0.21;100.00
36600;BME280;35385;55.668;37.508;2023-03-03T03:06:18;97765.63;;;-0.35;100.00
36600;BME280;35385;55.668;37.508;2023-03-03T03:07:19;97753.97;;;-0.44;100.00
36600;BME280;35385;55.668;37.508;2023-03-03T03:08:19;97753.00;;;-0.43;100.00
36600;BME280;35385;55.668;37.508;2023-03-03T03:09:20;97757.00;;;-0.37;100.00
36600;BME280;35385;55.668;37.508;2023-03-03T03:10:20;97753.00;;;-0.43;100.00
36600;BME280;35385;55.668;37.508;2023-03-03T03:11:21;97751.47;;;-0.45;100.00
36600;BME280;35385;55.668;37.508;2023-03-03T03:12:21;97749.78;;;-0.46;100.00
36600;BME280;35385;55.668;37.508;2023-03-03T03:13:22;97750.19;;;-0.52;100.00
36600;BME280;35385;55.668;37.508;2023-03-03T03:14:22;97750.47;;;-0.57;100.00
36600;BME280;35385;55.668;37.508;2023-03-03T03:15:23;97752.91;;;-0.54;100.00
36600;BME280;35385;55.668;37.508;2023-03-03T03:16:23;97748.69;;;-0.56;100.00
36600;BME280;35385;55.668;37.508;2023-03-03T03:17:24;97752.41;;;-0.59;100.00
36600;BME280;35385;55.668;37.508;2023-03-03T03:18:25;97739.69;;;-0.65;100.00
36600;BME280;35385;55.668;37.508;2023-03-03T03:19:27;97749.03;;;-0.61;100.00
36600;BME280;35385;55.668;37.508;2023-03-03T03:20:28;97747.16;;;-0.59;100.00
36600;BME280;35385;55.668;37.508;2023-03-03T03:21:29;97752.16;;;-0.56;100.00
36600;BME280;35385;55.668;37.508;2023-03-03T03:22:29;97746.09;;;-0.56;100.00
36600;BME280;35385;55.668;37.508;2023-03-03T03:23:30;97745.38;;;-0.58;100.00
36600;BME280;35385;55.668;37.508;2023-03-03T03:24:30;97749.88;;;-0.48;100.00
36600;BME280;35385;55.668;37.508;2023-03-03T03:25:31;97746.81;;;-0.42;100.00
36600;BME280;35385;55.668;37.508;2023-03-03T03:26:31;97747.75;;;-0.43;100.00
36600;BME280;35385;55.668;37.508;2023-03-03T03:27:31;97740.72;;;-0.42;100.00
36600;BME280;35385;55.668;37.508;2023-03-03T03:28:32;97762.06;;;-0.47;100.00
36600;BME280;35385;55.668;37.508;2023-03-03T03:29:33;97751.47;;;-0.58;100.00
36600;BME280;35385;55.668;37.508;2023-03-03T03:30:34;97743.16;;;-0.52;100.00
36600;BME280;35385;55.668;37.508;2023-03-03T03:31:35;97750.19;;;-0.65;100.00
36600;BME280;35385;55.668;37.508;2023-03-03T03:32:35;97751.56;;;-0.59;100.00
36600;BME280;35385;55.668;37.508;2023-03-03T03:33:36;97743.78;;;-0.61;100.00
36600;BME280;35385;55.668;37.508;2023-03-03T03:34:36;97701.59;;;-0.83;100.00
36600;BME280;35385;55.668;37.508;2023-03-03T03:35:36;97745.88;;;-0.66;100.00
36600;BME280;35385;55.668;37.508;2023-03-03T03:36:39;97743.06;;;-0.63;100.00
36600;BME280;35385;55.668;37.508;2023-03-03T03:37:39;97740.63;;;-0.66;100.00
36600;BME280;35385;55.668;37.508;2023-03-03T03:38:40;97738.09;;;-0.67;100.00
36600;BME280;35385;55.668;37.508;2023-03-03T03:39:40;97746.06;;;-0.69;100.00
36600;BME280;35385;55.668;37.508;2023-03-03T03:40:41;97730.25;;;-0.67;100.00
36600;BME280;35385;55.668;37.508;2023-03-03T03:41:42;97728.47;;;-0.67;100.00
36600;BME280;35385;55.668;37.508;2023-03-03T03:42:42;97738.94;;;-0.67;100.00
36600;BME280;35385;55.668;37.508;2023-03-03T03:43:43;97738.22;;;-0.69;100.00
36600;BME280;35385;55.668;37.508;2023-03-03T03:44:43;97747.56;;;-0.65;100.00
36600;BME280;35385;55.668;37.508;2023-03-03T03:45:44;97726.56;;;-0.65;100.00
36600;BME280;35385;55.668;37.508;2023-03-03T03:46:44;97729.09;;;-0.63;100.00
36600;BME280;35385;55.668;37.508;2023-03-03T03:47:44;97730.47;;;-0.58;100.00
36600;BME280;35385;55.668;37.508;2023-03-03T03:48:45;97735.72;;;-0.58;100.00
36600;BME280;35385;55.668;37.508;2023-03-03T03:49:45;97728.16;;;-0.62;100.00
36600;BME280;35385;55.668;37.508;2023-03-03T03:50:48;97731.28;;;-0.57;100.00
36600;BME280;35385;55.668;37.508;2023-03-03T03:51:49;97735.94;;;-0.61;100.00
36600;BME280;35385;55.668;37.508;2023-03-03T03:52:50;97739.38;;;-0.60;100.00
36600;BME280;35385;55.668;37.508;2023-03-03T03:53:50;97744.72;;;-0.62;100.00
36600;BME280;35385;55.668;37.508;2023-03-03T03:54:51;97735.19;;;-0.63;100.00
36600;BME280;35385;55.668;37.508;2023-03-03T03:55:51;97732.56;;;-0.63;100.00
36600;BME280;35385;55.668;37.508;2023-03-03T03:56:51;97734.97;;;-0.60;100.00
36600;BME280;35385;55.668;37.508;2023-03-03T03:57:54;97734.16;;;-0.60;100.00
36600;BME280;35385;55.668;37.508;2023-03-03T03:58:55;97731.41;;;-0.59;100.00
36600;BME280;35385;55.668;37.508;2023-03-03T03:59:55;97737.06;;;-0.52;100.00
36600;BME280;35385;55.668;37.508;2023-03-03T04:01:00;97726.88;;;-0.57;100.00
36600;BME280;35385;55.668;37.508;2023-03-03T04:02:01;97727.84;;;-0.58;100.00
36600;BME280;35385;55.668;37.508;2023-03-03T04:03:01;97733.91;;;-0.57;100.00
36600;BME280;35385;55.668;37.508;2023-03-03T04:04:01;97728.06;;;-0.61;100.00
36600;BME280;35385;55.668;37.508;2023-03-03T04:05:03;97727.00;;;-0.58;100.00
36600;BME280;35385;55.668;37.508;2023-03-03T04:06:04;97721.34;;;-0.52;100.00
36600;BME280;35385;55.668;37.508;2023-03-03T04:07:04;97720.19;;;-0.48;100.00
36600;BME280;35385;55.668;37.508;2023-03-03T04:08:04;97728.91;;;-0.48;100.00
36600;BME280;35385;55.668;37.508;2023-03-03T04:09:05;97733.81;;;-0.56;100.00
36600;BME280;35385;55.668;37.508;2023-03-03T04:10:05;97719.25;;;-0.60;100.00
36600;BME280;35385;55.668;37.508;2023-03-03T04:11:06;97717.38;;;-0.58;100.00
36600;BME280;35385;55.668;37.508;2023-03-03T04:12:06;97715.25;;;-0.53;100.00
36600;BME280;35385;55.668;37.508;2023-03-03T04:13:07;97715.25;;;-0.53;100.00
36600;BME280;35385;55.668;37.508;2023-03-03T04:14:07;97711.38;;;-0.47;100.00
36600;BME280;35385;55.668;37.508;2023-03-03T04:15:08;97710.72;;;-0.38;100.00
36600;BME280;35385;55.668;37.508;2023-03-03T04:16:09;97714.19;;;-0.38;100.00
36600;BME280;35385;55.668;37.508;2023-03-03T04:17:16;97703.91;;;-0.41;100.00
36600;BME280;35385;55.668;37.508;2023-03-03T04:18:17;97717.47;;;-0.34;100.00
36600;BME280;35385;55.668;37.508;2023-03-03T04:19:17;97710.53;;;-0.35;100.00
36600;BME280;35385;55.668;37.508;2023-03-03T04:20:18;97713.06;;;-0.33;100.00
36600;BME280;35385;55.668;37.508;2023-03-03T04:21:18;97712.72;;;-0.42;100.00
36600;BME280;35385;55.668;37.508;2023-03-03T04:22:19;97708.31;;;-0.41;100.00
36600;BME280;35385;55.668;37.508;2023-03-03T04:23:20;97705.41;;;-0.49;100.00
36600;BME280;35385;55.668;37.508;2023-03-03T04:24:20;97709.06;;;-0.52;100.00
36600;BME280;35385;55.668;37.508;2023-03-03T04:25:21;97703.72;;;-0.63;100.00
36600;BME280;35385;55.668;37.508;2023-03-03T04:26:21;97702.03;;;-0.64;100.00
36600;BME280;35385;55.668;37.508;2023-03-03T04:27:22;97704.97;;;-0.56;100.00
36600;BME280;35385;55.668;37.508;2023-03-03T04:28:22;97707.81;;;-0.59;100.00
36600;BME280;35385;55.668;37.508;2023-03-03T04:29:24;97715.25;;;-0.65;100.00
36600;BME280;35385;55.668;37.508;2023-03-03T04:30:24;97714.81;;;-0.72;100.00
36600;BME280;35385;55.668;37.508;2023-03-03T04:31:26;97712.72;;;-0.67;100.00
36600;BME280;35385;55.668;37.508;2023-03-03T04:32:26;97712.94;;;-0.70;100.00
36600;BME280;35385;55.668;37.508;2023-03-03T04:33:27;97711.03;;;-0.68;100.00
36600;BME280;35385;55.668;37.508;2023-03-03T04:34:27;97709.69;;;-0.74;100.00
36600;BME280;35385;55.668;37.508;2023-03-03T04:35:28;97710.31;;;-0.70;100.00
36600;BME280;35385;55.668;37.508;2023-03-03T04:36:28;97715.25;;;-0.65;100.00
36600;BME280;35385;55.668;37.508;2023-03-03T04:37:29;97715.69;;;-0.59;100.00
36600;BME280;35385;55.668;37.508;2023-03-03T04:38:29;97709.38;;;-0.56;100.00
36600;BME280;35385;55.668;37.508;2023-03-03T04:39:30;97709.38;;;-0.56;100.00
36600;BME280;35385;55.668;37.508;2023-03-03T04:40:30;97704.97;;;-0.56;100.00
36600;BME280;35385;55.668;37.508;2023-03-03T04:41:30;97713.38;;;-0.51;100.00
36600;BME280;35385;55.668;37.508;2023-03-03T04:42:31;97707.47;;;-0.54;100.00
36600;BME280;35385;55.668;37.508;2023-03-03T04:43:31;97710.22;;;-0.56;100.00
36600;BME280;35385;55.668;37.508;2023-03-03T04:44:31;97711.88;;;-0.55;100.00
36600;BME280;35385;55.668;37.508;2023-03-03T04:45:32;97716.53;;;-0.58;100.00
36600;BME280;35385;55.668;37.508;2023-03-03T04:46:32;97709.50;;;-0.58;100.00
36600;BME280;35385;55.668;37.508;2023-03-03T04:47:33;97711.03;;;-0.55;100.00
36600;BME280;35385;55.668;37.508;2023-03-03T04:48:34;97710.63;;;-0.49;100.00
36600;BME280;35385;55.668;37.508;2023-03-03T04:49:34;97725.53;;;-0.50;100.00
36600;BME280;35385;55.668;37.508;2023-03-03T04:50:35;97716.72;;;-0.49;100.00
36600;BME280;35385;55.668;37.508;2023-03-03T04:51:35;97710.34;;;-0.45;100.00
36600;BME280;35385;55.668;37.508;2023-03-03T04:52:35;97711.47;;;-0.49;100.00
36600;BME280;35385;55.668;37.508;2023-03-03T04:53:36;97702.47;;;-0.45;100.00
36600;BME280;35385;55.668;37.508;2023-03-03T04:54:37;97716.09;;;-0.40;100.00
36600;BME280;35385;55.668;37.508;2023-03-03T04:55:37;97704.34;;;-0.47;100.00
36600;BME280;35385;55.668;37.508;2023-03-03T04:56:38;97717.13;;;-0.55;100.00
36600;BME280;35385;55.668;37.508;2023-03-03T04:57:38;97705.41;;;-0.49;100.00
36600;BME280;35385;55.668;37.508;2023-03-03T04:58:39;97716.09;;;-0.52;100.00
36600;BME280;35385;55.668;37.508;2023-03-03T04:59:39;97711.69;;;-0.52;100.00
36600;BME280;35385;55.668;37.508;2023-03-03T05:00:40;97715.16;;;-0.51;100.00
36600;BME280;35385;55.668;37.508;2023-03-03T05:01:40;97713.47;;;-0.52;100.00
36600;BME280;35385;55.668;37.508;2023-03-03T05:02:41;97710.22;;;-0.56;100.00
36600;BME280;35385;55.668;37.508;2023-03-03T05:03:41;97708.97;;;-0.50;100.00
36600;BME280;35385;55.668;37.508;2023-03-03T05:04:42;97711.28;;;-0.46;100.00
36600;BME280;35385;55.668;37.508;2023-03-03T05:05:42;97711.03;;;-0.43;100.00
36600;BME280;35385;55.668;37.508;2023-03-03T05:06:43;97703.91;;;-0.41;100.00
36600;BME280;35385;55.668;37.508;2023-03-03T05:07:43;97712.53;;;-0.39;100.00
36600;BME280;35385;55.668;37.508;2023-03-03T05:08:44;97717.47;;;-0.34;100.00
36600;BME280;35385;55.668;37.508;2023-03-03T05:09:45;97712.94;;;-0.32;100.00
36600;BME280;35385;55.668;37.508;2023-03-03T05:10:45;97704.72;;;-0.27;100.00
36600;BME280;35385;55.668;37.508;2023-03-03T05:11:46;97716.50;;;-0.20;100.00
36600;BME280;35385;55.668;37.508;2023-03-03T05:12:46;97716.28;;;-0.17;100.00
36600;BME280;35385;55.668;37.508;2023-03-03T05:13:47;97719.03;;;-0.19;100.00
36600;BME280;35385;55.668;37.508;2023-03-03T05:14:47;97716.41;;;-0.19;100.00
36600;BME280;35385;55.668;37.508;2023-03-03T05:15:51;97722.41;;;-0.29;100.00
36600;BME280;35385;55.668;37.508;2023-03-03T05:16:52;97715.88;;;-0.49;100.00
36600;BME280;35385;55.668;37.508;2023-03-03T05:17:52;97730.47;;;-0.45;100.00
36600;BME280;35385;55.668;37.508;2023-03-03T05:18:55;97714.31;;;-0.39;100.00
36600;BME280;35385;55.668;37.508;2023-03-03T05:19:55;97712.09;;;-0.32;100.00
36600;BME280;35385;55.668;37.508;2023-03-03T05:20:56;97724.28;;;-0.31;100.00
36600;BME280;35385;55.668;37.508;2023-03-03T05:21:56;97696.38;;;-0.32;100.00
36600;BME280;35385;55.668;37.508;2023-03-03T05:22:57;97715.47;;;-0.30;100.00
36600;BME280;35385;55.668;37.508;2023-03-03T05:24:00;97715.66;;;-0.21;100.00
36600;BME280;35385;55.668;37.508;2023-03-03T05:25:01;97716.19;;;-0.16;100.00
36600;BME280;35385;55.668;37.508;2023-03-03T05:26:01;97725.59;;;-0.13;100.00
36600;BME280;35385;55.668;37.508;2023-03-03T05:27:02;97719.66;;;-0.15;100.00